MeteoGriva Station Historical Data
Daily Summary for September 22, 2020 Units:  Both    English   Metric
Daily Weekly Monthly Yearly Custom
  High: Low: Average:
Temperature: 78.3 °F /  25.7 °C 60.3 °F /  15.7 °C 69.1 °F /  20.6 °C
Dew Point: 67.6 °F /  19.8 °C 56.5 °F /  13.6 °C 61.7 °F /  16.5 °C
Humidity: 99% 63.1% 78%
Wind Speed: 10.1mph /  16.3km/h - 2.5mph /  4.1km/h
Wind Gust: 22.6mph /  36.4km/h - -
Wind- - South
Pressure: 30.1 in /  1018.3 hPa 29.9 in /  1013.2 hPa -
Precipitation: 0 in /  0.0 mm    
Historical Graphs
 
 
Tabular Data for September 22, 2020
Time Temperature Dew Point Pressure Wind Wind Speed Wind Gust Humidity Rainfall Rate (Hourly) solar
00:04 65.5 °F /  18.6 °C 56.7 °F /  13.7 °C 30in /  1016.9hPa South 1.1mph /  1.7km/h 4.9mph /  7.9km/h 73% 0in /  0.0mm 0 W/m2
00:09 65.5 °F /  18.6 °C 56.7 °F /  13.7 °C 30in /  1016.6hPa SSW 3mph /  4.8km/h 4.9mph /  7.9km/h 73% 0in /  0.0mm 0 W/m2
00:14 65.5 °F /  18.6 °C 56.7 °F /  13.7 °C 30in /  1016.9hPa South 2.7mph /  4.3km/h 7.6mph /  12.2km/h 73.1% 0in /  0.0mm 0 W/m2
00:19 65.5 °F /  18.6 °C 57 °F /  13.9 °C 30in /  1016.6hPa South 2mph /  3.2km/h 4.9mph /  7.9km/h 74% 0in /  0.0mm 0 W/m2
00:24 65.3 °F /  18.5 °C 57 °F /  13.9 °C 30in /  1016.6hPa South 0.8mph /  1.3km/h 4.9mph /  7.9km/h 74.3% 0in /  0.0mm 0 W/m2
00:29 65.3 °F /  18.5 °C 57 °F /  13.9 °C 30in /  1016.9hPa South 1.1mph /  1.7km/h 4.9mph /  7.9km/h 74.6% 0in /  0.0mm 0 W/m2
00:34 65.3 °F /  18.5 °C 57.2 °F /  14 °C 30in /  1016.9hPa SSW 0.2mph /  0.4km/h 4.9mph /  7.9km/h 75% 0in /  0.0mm 0 W/m2
00:39 65.1 °F /  18.4 °C 57.2 °F /  14 °C 30in /  1016.9hPa SSE 0.1mph /  0.2km/h 4.9mph /  7.9km/h 75.7% 0in /  0.0mm 0 W/m2
00:44 64.8 °F /  18.2 °C 57 °F /  13.9 °C 30in /  1016.9hPa South 0.4mph /  0.6km/h 2.5mph /  4km/h 76% 0in /  0.0mm 0 W/m2
00:49 64.8 °F /  18.2 °C 57 °F /  13.9 °C 30in /  1016.9hPa SSW 0.1mph /  0.2km/h 2.5mph /  4km/h 76% 0in /  0.0mm 0 W/m2
00:54 64.8 °F /  18.2 °C 57 °F /  13.9 °C 30in /  1016.9hPa South 0.4mph /  0.6km/h 2.5mph /  4km/h 76% 0in /  0.0mm 0 W/m2
00:59 64.9 °F /  18.3 °C 57.4 °F /  14.1 °C 30in /  1016.9hPa South 0.2mph /  0.3km/h 4.9mph /  7.9km/h 76.7% 0in /  0.0mm 0 W/m2
01:04 65.7 °F /  18.7 °C 58.1 °F /  14.5 °C 30in /  1016.9hPa South 1.4mph /  2.2km/h 4.9mph /  7.9km/h 76.3% 0in /  0.0mm 0 W/m2
01:09 65.7 °F /  18.7 °C 57.9 °F /  14.4 °C 30in /  1016.9hPa SSW 0.1mph /  0.1km/h 4.9mph /  7.9km/h 76.1% 0in /  0.0mm 0 W/m2
01:14 65.7 °F /  18.7 °C 57.9 °F /  14.4 °C 30in /  1016.9hPa Calm   2.5mph /  4km/h 76.2% 0in /  0.0mm 0 W/m2
01:19 65.5 °F /  18.6 °C 58.1 °F /  14.5 °C 30in /  1016.9hPa Calm     77% 0in /  0.0mm 0 W/m2
01:24 64.8 °F /  18.2 °C 57.2 °F /  14 °C 30in /  1016.9hPa Calm     77% 0in /  0.0mm 0 W/m2
01:29 64.6 °F /  18.1 °C 57.6 °F /  14.2 °C 30in /  1017.3hPa Calm     77.9% 0in /  0.0mm 0 W/m2
01:34 64.6 °F /  18.1 °C 57.6 °F /  14.2 °C 30in /  1016.9hPa Calm     78% 0in /  0.0mm 0 W/m2
01:39 64.6 °F /  18.1 °C 57.7 °F /  14.3 °C 30in /  1017.3hPa Calm     78.7% 0in /  0.0mm 0 W/m2
01:44 64.4 °F /  18 °C 57.6 °F /  14.2 °C 30in /  1016.9hPa Calm     78.4% 0in /  0.0mm 0 W/m2
01:49 64.6 °F /  18.1 °C 57.4 °F /  14.1 °C 30in /  1016.9hPa Calm     77.6% 0in /  0.0mm 0 W/m2
01:54 64.6 °F /  18.1 °C 57.6 °F /  14.2 °C 30in /  1016.9hPa Calm     78.1% 0in /  0.0mm 0 W/m2
01:59 64.6 °F /  18.1 °C 57.7 °F /  14.3 °C 30in /  1016.9hPa Calm     78.7% 0in /  0.0mm 0 W/m2
02:04 64.4 °F /  18 °C 57.6 °F /  14.2 °C 30in /  1016.9hPa Calm     78.3% 0in /  0.0mm 0 W/m2
02:09 64.4 °F /  18 °C 57.4 °F /  14.1 °C 30in /  1017.3hPa Calm     78% 0in /  0.0mm 0 W/m2
02:14 64.4 °F /  18 °C 57.6 °F /  14.2 °C 30in /  1016.9hPa Calm     78.7% 0in /  0.0mm 0 W/m2
02:19 64.2 °F /  17.9 °C 57.9 °F /  14.4 °C 30in /  1016.9hPa Calm     79.9% 0in /  0.0mm 0 W/m2
02:24 63.1 °F /  17.3 °C 57 °F /  13.9 °C 30in /  1016.9hPa Calm     80.7% 0in /  0.0mm 0 W/m2
02:29 63 °F /  17.2 °C 57 °F /  13.9 °C 30in /  1016.9hPa Calm     81% 0in /  0.0mm 0 W/m2
02:34 63 °F /  17.2 °C 57 °F /  13.9 °C 30in /  1016.9hPa Calm     80.8% 0in /  0.0mm 0 W/m2
02:39 63 °F /  17.2 °C 56.8 °F /  13.8 °C 30in /  1016.9hPa Calm     80.6% 0in /  0.0mm 0 W/m2
02:44 62.8 °F /  17.1 °C 56.8 °F /  13.8 °C 30in /  1016.6hPa Calm     81% 0in /  0.0mm 0 W/m2
02:49 62.8 °F /  17.1 °C 56.7 °F /  13.7 °C 30in /  1016.9hPa Calm     80.6% 0in /  0.0mm 0 W/m2
02:54 62.8 °F /  17.1 °C 56.5 °F /  13.6 °C 30in /  1016.9hPa Calm     80.2% 0in /  0.0mm 0 W/m2
02:59 63 °F /  17.2 °C 56.7 °F /  13.7 °C 30in /  1016.9hPa Calm     80% 0in /  0.0mm 0 W/m2
03:04 63 °F /  17.2 °C 56.8 °F /  13.8 °C 30in /  1016.9hPa Calm     80.7% 0in /  0.0mm 0 W/m2
03:09 63 °F /  17.2 °C 57.4 °F /  14.1 °C 30in /  1016.9hPa Calm     82% 0in /  0.0mm 0 W/m2
03:14 62.8 °F /  17.1 °C 57.2 °F /  14 °C 30in /  1016.9hPa Calm     82% 0in /  0.0mm 0 W/m2
03:19 62.8 °F /  17.1 °C 57.2 °F /  14 °C 30in /  1016.6hPa Calm     82% 0in /  0.0mm 0 W/m2
03:24 62.4 °F /  16.9 °C 56.8 °F /  13.8 °C 30in /  1016.6hPa Calm     82.1% 0in /  0.0mm 0 W/m2
03:29 62.4 °F /  16.9 °C 56.5 °F /  13.6 °C 30in /  1016.9hPa Calm     81.2% 0in /  0.0mm 0 W/m2
03:34 62.4 °F /  16.9 °C 56.8 °F /  13.8 °C 30in /  1016.6hPa Calm     82% 0in /  0.0mm 0 W/m2
03:39 62.6 °F /  17 °C 56.8 °F /  13.8 °C 30in /  1016.6hPa Calm     81.6% 0in /  0.0mm 0 W/m2
03:44 63.1 °F /  17.3 °C 57 °F /  13.9 °C 30in /  1016.6hPa Calm     80.4% 0in /  0.0mm 0 W/m2
03:49 63.3 °F /  17.4 °C 57.2 °F /  14 °C 30in /  1016.6hPa Calm     80.3% 0in /  0.0mm 0 W/m2
03:54 63.3 °F /  17.4 °C 57 °F /  13.9 °C 30in /  1016.3hPa Calm     79.8% 0in /  0.0mm 0 W/m2
03:59 63.5 °F /  17.5 °C 56.8 °F /  13.8 °C 30in /  1016.3hPa Calm     79.2% 0in /  0.0mm 0 W/m2
04:04 63.9 °F /  17.7 °C 57.4 °F /  14.1 °C 30in /  1016.6hPa Calm     79.2% 0in /  0.0mm 0 W/m2
04:09 63.9 °F /  17.7 °C 57.6 °F /  14.2 °C 30in /  1016.6hPa Calm     79.6% 0in /  0.0mm 0 W/m2
04:14 63.9 °F /  17.7 °C 57.6 °F /  14.2 °C 30in /  1016.6hPa Calm     80.1% 0in /  0.0mm 0 W/m2
04:19 63.9 °F /  17.7 °C 57.4 °F /  14.1 °C 30in /  1016.3hPa Calm     79.9% 0in /  0.0mm 0 W/m2
04:24 63.3 °F /  17.4 °C 57.2 °F /  14 °C 30in /  1016.3hPa Calm     80.7% 0in /  0.0mm 0 W/m2
04:29 63.1 °F /  17.3 °C 56.8 °F /  13.8 °C 30in /  1016.3hPa Calm     80.1% 0in /  0.0mm 0 W/m2
04:34 63.1 °F /  17.3 °C 57.2 °F /  14 °C 30in /  1016.3hPa Calm     81% 0in /  0.0mm 0 W/m2
04:39 63.1 °F /  17.3 °C 57.2 °F /  14 °C 30in /  1016.3hPa Calm     81% 0in /  0.0mm 0 W/m2
04:44 63.3 °F /  17.4 °C 57 °F /  13.9 °C 30in /  1016.3hPa Calm     80% 0in /  0.0mm 0 W/m2
04:49 63.5 °F /  17.5 °C 57.2 °F /  14 °C 30in /  1016.6hPa Calm     80% 0in /  0.0mm 0 W/m2
04:54 63.5 °F /  17.5 °C 57 °F /  13.9 °C 30in /  1016.3hPa Calm     79.6% 0in /  0.0mm 0 W/m2
04:59 63.5 °F /  17.5 °C 57.2 °F /  14 °C 30in /  1016.3hPa Calm     80% 0in /  0.0mm 0 W/m2
05:04 63.5 °F /  17.5 °C 57.6 °F /  14.2 °C 30in /  1016.3hPa Calm     80.9% 0in /  0.0mm 0 W/m2
05:09 63.5 °F /  17.5 °C 58.1 °F /  14.5 °C 30in /  1016.3hPa Calm     82.7% 0in /  0.0mm 0 W/m2
05:14 63.5 °F /  17.5 °C 58.6 °F /  14.8 °C 30in /  1016.3hPa Calm     84.6% 0in /  0.0mm 0 W/m2
05:19 63.3 °F /  17.4 °C 58.8 °F /  14.9 °C 30in /  1016.6hPa Calm     85% 0in /  0.0mm 0 W/m2
05:24 63 °F /  17.2 °C 58.5 °F /  14.7 °C 30in /  1016.3hPa Calm     85.8% 0in /  0.0mm 0 W/m2
05:29 62.6 °F /  17 °C 58.6 °F /  14.8 °C 30in /  1016.6hPa Calm     87.1% 0in /  0.0mm 0 W/m2
05:34 62.6 °F /  17 °C 59 °F /  15 °C 30in /  1016.3hPa Calm     88.2% 0in /  0.0mm 0 W/m2
05:39 62.6 °F /  17 °C 59.4 °F /  15.2 °C 30in /  1016.3hPa Calm     89.4% 0in /  0.0mm 0 W/m2
05:44 62.4 °F /  16.9 °C 59.4 °F /  15.2 °C 30in /  1016.3hPa Calm     90.2% 0in /  0.0mm 0 W/m2
05:49 62.1 °F /  16.7 °C 59.4 °F /  15.2 °C 30in /  1016.6hPa Calm     91% 0in /  0.0mm 0 W/m2
05:54 62.1 °F /  16.7 °C 59.2 °F /  15.1 °C 30in /  1016.6hPa Calm     90.1% 0in /  0.0mm 0 W/m2
05:59 62.1 °F /  16.7 °C 59 °F /  15 °C 30in /  1016.6hPa Calm     89.6% 0in /  0.0mm 0 W/m2
06:04 61.7 °F /  16.5 °C 58.5 °F /  14.7 °C 30in /  1016.6hPa Calm     89% 0in /  0.0mm 0 W/m2
06:09 61.5 °F /  16.4 °C 58.6 °F /  14.8 °C 30in /  1016.6hPa Calm     89.9% 0in /  0.0mm 0 W/m2
06:14 61.3 °F /  16.3 °C 59 °F /  15 °C 30in /  1016.6hPa Calm     91.4% 0in /  0.0mm 0 W/m2
06:19 61.3 °F /  16.3 °C 59.9 °F /  15.5 °C 30in /  1016.9hPa Calm     94.6% 0in /  0.0mm 0 W/m2
06:24 61.2 °F /  16.2 °C 60.4 °F /  15.8 °C 30in /  1016.9hPa Calm     97.4% 0in /  0.0mm 0 W/m2
06:29 60.8 °F /  16 °C 60.4 °F /  15.8 °C 30in /  1016.9hPa Calm     99% 0in /  0.0mm 0 W/m2
06:34 60.8 °F /  16 °C 60.4 °F /  15.8 °C 30in /  1016.9hPa Calm     99% 0in /  0.0mm 0 W/m2
06:39 60.8 °F /  16 °C 60.4 °F /  15.8 °C 30in /  1016.9hPa Calm     99% 0in /  0.0mm 0 W/m2
06:44 60.8 °F /  16 °C 60.4 °F /  15.8 °C 30in /  1016.9hPa Calm     99% 0in /  0.0mm 0 W/m2
06:49 60.6 °F /  15.9 °C 60.3 °F /  15.7 °C 30in /  1017.3hPa Calm     99% 0in /  0.0mm 0 W/m2
06:54 60.6 °F /  15.9 °C 60.3 °F /  15.7 °C 30in /  1016.9hPa Calm     99% 0in /  0.0mm 0 W/m2
06:59 60.6 °F /  15.9 °C 60.3 °F /  15.7 °C 30in /  1016.9hPa Calm     99% 0in /  0.0mm 0 W/m2
07:04 60.4 °F /  15.8 °C 60.1 °F /  15.6 °C 30in /  1017.3hPa Calm     99% 0in /  0.0mm 0 W/m2
07:09 60.3 °F /  15.7 °C 59.9 °F /  15.5 °C 30in /  1017.3hPa Calm     99% 0in /  0.0mm 0 W/m2
07:14 60.3 °F /  15.7 °C 59.9 °F /  15.5 °C 30in /  1017.3hPa Calm     99% 0in /  0.0mm 0 W/m2
07:19 60.3 °F /  15.7 °C 59.9 °F /  15.5 °C 30in /  1017.3hPa Calm     99% 0in /  0.0mm 2 W/m2
07:24 60.4 °F /  15.8 °C 60.3 °F /  15.7 °C 30in /  1017.3hPa Calm     99% 0in /  0.0mm 5 W/m2
07:29 60.8 °F /  16 °C 60.4 °F /  15.8 °C 30in /  1017.3hPa Calm     99% 0in /  0.0mm 10 W/m2
07:34 60.8 °F /  16 °C 60.4 °F /  15.8 °C 30in /  1017.3hPa Calm     99% 0in /  0.0mm 17 W/m2
07:39 60.8 °F /  16 °C 60.4 °F /  15.8 °C 30in /  1017.3hPa Calm     99% 0in /  0.0mm 23 W/m2
07:44 61.5 °F /  16.4 °C 61 °F /  16.1 °C 30.1in /  1017.6hPa Calm     99% 0in /  0.0mm 30 W/m2
07:49 62.1 °F /  16.7 °C 61.7 °F /  16.5 °C 30.1in /  1017.6hPa Calm     99% 0in /  0.0mm 36 W/m2
07:54 62.1 °F /  16.7 °C 61.7 °F /  16.5 °C 30.1in /  1017.6hPa Calm     99% 0in /  0.0mm 43 W/m2
07:59 62.2 °F /  16.8 °C 61.5 °F /  16.4 °C 30.1in /  1017.6hPa Calm     97.1% 0in /  0.0mm 49 W/m2
08:04 63.5 °F /  17.5 °C 62.1 °F /  16.7 °C 30.1in /  1017.6hPa Calm     94.8% 0in /  0.0mm 55 W/m2
08:09 65.3 °F /  18.5 °C 63 °F /  17.2 °C 30.1in /  1017.6hPa Calm     92.4% 0in /  0.0mm 61 W/m2
08:14 65.5 °F /  18.6 °C 62.8 °F /  17.1 °C 30.1in /  1017.6hPa Calm     91.4% 0in /  0.0mm 66 W/m2
08:19 65.7 °F /  18.7 °C 62.4 °F /  16.9 °C 30.1in /  1017.6hPa Calm     89.3% 0in /  0.0mm 73 W/m2
08:24 66.4 °F /  19.1 °C 64 °F /  17.8 °C 30.1in /  1018.0hPa Calm     92.3% 0in /  0.0mm 79 W/m2
08:29 67.1 °F /  19.5 °C 63.9 °F /  17.7 °C 30.1in /  1018.0hPa Calm     89% 0in /  0.0mm 83 W/m2
08:34 67.5 °F /  19.7 °C 63.9 °F /  17.7 °C 30.1in /  1018.0hPa Calm     88.3% 0in /  0.0mm 87 W/m2
08:39 67.8 °F /  19.9 °C 63.9 °F /  17.7 °C 30.1in /  1018.0hPa Calm     87% 0in /  0.0mm 91 W/m2
08:44 68.4 °F /  20.2 °C 64.6 °F /  18.1 °C 30.1in /  1018.0hPa Calm     88% 0in /  0.0mm 95 W/m2
08:49 69.3 °F /  20.7 °C 65.3 °F /  18.5 °C 30.1in /  1018.0hPa Calm     86.9% 0in /  0.0mm 99 W/m2
08:54 69.3 °F /  20.7 °C 64.9 °F /  18.3 °C 30.1in /  1018.0hPa SSE 0.4mph /  0.6km/h 4.9mph /  7.9km/h 86.1% 0in /  0.0mm 102 W/m2
08:59 69.4 °F /  20.8 °C 64.8 °F /  18.2 °C 30.1in /  1018.0hPa South 0.5mph /  0.8km/h 7.6mph /  12.2km/h 85.1% 0in /  0.0mm 104 W/m2
09:04 69.6 °F /  20.9 °C 64.6 °F /  18.1 °C 30.1in /  1018.0hPa SSE 1mph /  1.6km/h 7.6mph /  12.2km/h 84.1% 0in /  0.0mm 107 W/m2
09:09 70 °F /  21.1 °C 64.4 °F /  18 °C 30.1in /  1018.0hPa SSE 1.1mph /  1.7km/h 7.6mph /  12.2km/h 82.7% 0in /  0.0mm 110 W/m2
09:14 70.2 °F /  21.2 °C 64.4 °F /  18 °C 30.1in /  1018.0hPa SSE 1.2mph /  1.9km/h 7.6mph /  12.2km/h 82.2% 0in /  0.0mm 114 W/m2
09:19 70.2 °F /  21.2 °C 64 °F /  17.8 °C 30.1in /  1018.0hPa SSE 0.2mph /  0.3km/h 4.9mph /  7.9km/h 80.9% 0in /  0.0mm 118 W/m2
09:24 70.5 °F /  21.4 °C 64.4 °F /  18 °C 30.1in /  1018.0hPa SE 0.7mph /  1.1km/h 4.9mph /  7.9km/h 81.2% 0in /  0.0mm 123 W/m2
09:29 71.2 °F /  21.8 °C 65.1 °F /  18.4 °C 30.1in /  1018.0hPa South 0.5mph /  0.8km/h 4.9mph /  7.9km/h 81% 0in /  0.0mm 127 W/m2
09:34 71.2 °F /  21.8 °C 65.3 °F /  18.5 °C 30.1in /  1018.0hPa SE 1.1mph /  1.7km/h 4.9mph /  7.9km/h 81.4% 0in /  0.0mm 131 W/m2
09:39 71.2 °F /  21.8 °C 65.1 °F /  18.4 °C 30.1in /  1018.0hPa SSE 0.6mph /  1km/h 4.9mph /  7.9km/h 81.2% 0in /  0.0mm 135 W/m2
09:44 71.2 °F /  21.8 °C 65.3 °F /  18.5 °C 30.1in /  1018.3hPa SE 1.2mph /  1.9km/h 7.6mph /  12.2km/h 81.8% 0in /  0.0mm 140 W/m2
09:49 70.9 °F /  21.6 °C 64.9 °F /  18.3 °C 30.1in /  1018.0hPa South 1.6mph /  2.5km/h 7.6mph /  12.2km/h 81.8% 0in /  0.0mm 146 W/m2
09:54 70.9 °F /  21.6 °C 64.8 °F /  18.2 °C 30.1in /  1018.0hPa SSE 1.6mph /  2.6km/h 7.6mph /  12.2km/h 80.8% 0in /  0.0mm 151 W/m2
09:59 71.1 °F /  21.7 °C 64.4 °F /  18 °C 30.1in /  1018.0hPa SSE 1.6mph /  2.6km/h 7.6mph /  12.2km/h 79.3% 0in /  0.0mm 158 W/m2
10:04 71.4 °F /  21.9 °C 64.4 °F /  18 °C 30.1in /  1018.0hPa South 2.5mph /  4.1km/h 7.6mph /  12.2km/h 78.1% 0in /  0.0mm 162 W/m2
10:09 72.5 °F /  22.5 °C 64.4 °F /  18 °C 30.1in /  1018.0hPa SE 4mph /  6.4km/h 7.6mph /  12.2km/h 75.8% 0in /  0.0mm 168 W/m2
10:14 72.3 °F /  22.4 °C 63.9 °F /  17.7 °C 30.1in /  1018.0hPa SSE 4.1mph /  6.6km/h 10.1mph /  16.3km/h 74.9% 0in /  0.0mm 173 W/m2
10:19 72.3 °F /  22.4 °C 64 °F /  17.8 °C 30.1in /  1018.3hPa SSE 2.7mph /  4.4km/h 7.6mph /  12.2km/h 75.1% 0in /  0.0mm 179 W/m2
10:24 72.5 °F /  22.5 °C 63.7 °F /  17.6 °C 30.1in /  1018.0hPa SE 2mph /  3.2km/h 12.5mph /  20.1km/h 73.7% 0in /  0.0mm 185 W/m2
10:29 73.6 °F /  23.1 °C 64.6 °F /  18.1 °C 30.1in /  1018.0hPa SSE 2.5mph /  4km/h 10.1mph /  16.3km/h 73.3% 0in /  0.0mm 194 W/m2
10:34 73.6 °F /  23.1 °C 64.2 °F /  17.9 °C 30.1in /  1018.0hPa SSE 1.4mph /  2.2km/h 10.1mph /  16.3km/h 72.7% 0in /  0.0mm 200 W/m2
10:39 73.6 °F /  23.1 °C 64 °F /  17.8 °C 30.1in /  1018.0hPa SE 2.2mph /  3.6km/h 10.1mph /  16.3km/h 71.8% 0in /  0.0mm 209 W/m2
10:44 73.8 °F /  23.2 °C 64.2 °F /  17.9 °C 30.1in /  1018.0hPa SSE 4.7mph /  7.6km/h 10.1mph /  16.3km/h 72% 0in /  0.0mm 215 W/m2
10:49 73.9 °F /  23.3 °C 64.2 °F /  17.9 °C 30.1in /  1017.6hPa SE 3.3mph /  5.3km/h 10.1mph /  16.3km/h 71.9% 0in /  0.0mm 224 W/m2
10:54 73.9 °F /  23.3 °C 64 °F /  17.8 °C 30.1in /  1017.6hPa South 3.7mph /  6km/h 10.1mph /  16.3km/h 71.3% 0in /  0.0mm 230 W/m2
10:59 73.9 °F /  23.3 °C 63.9 °F /  17.7 °C 30.1in /  1017.6hPa South 5mph /  8.1km/h 10.1mph /  16.3km/h 70.9% 0in /  0.0mm 236 W/m2
11:04 73.9 °F /  23.3 °C 64 °F /  17.8 °C 30.1in /  1017.6hPa South 3.5mph /  5.6km/h 10.1mph /  16.3km/h 70.9% 0in /  0.0mm 242 W/m2
11:09 74.1 °F /  23.4 °C 63.7 °F /  17.6 °C 30.1in /  1018.0hPa South 4.1mph /  6.6km/h 7.6mph /  12.2km/h 70% 0in /  0.0mm 250 W/m2
11:14 74.1 °F /  23.4 °C 63.3 °F /  17.4 °C 30.1in /  1017.6hPa SSE 4.3mph /  7km/h 10.1mph /  16.3km/h 69.1% 0in /  0.0mm 257 W/m2
11:19 74.1 °F /  23.4 °C 62.6 °F /  17 °C 30.1in /  1017.6hPa SSE 4.7mph /  7.5km/h 12.5mph /  20.1km/h 67.2% 0in /  0.0mm 268 W/m2
11:24 74.1 °F /  23.4 °C 62.4 °F /  16.9 °C 30in /  1017.3hPa South 4.9mph /  7.9km/h 10.1mph /  16.3km/h 67% 0in /  0.0mm 270 W/m2
11:29 74.5 °F /  23.6 °C 63 °F /  17.2 °C 30in /  1017.3hPa SSE 6.3mph /  10.1km/h 12.5mph /  20.1km/h 67.6% 0in /  0.0mm 285 W/m2
11:34 74.5 °F /  23.6 °C 63 °F /  17.2 °C 30in /  1016.9hPa SSE 5.1mph /  8.2km/h 12.5mph /  20.1km/h 67.4% 0in /  0.0mm 288 W/m2
11:39 74.3 °F /  23.5 °C 63.1 °F /  17.3 °C 30in /  1017.3hPa SSE 5.8mph /  9.4km/h 12.5mph /  20.1km/h 67.9% 0in /  0.0mm 297 W/m2
11:44 74.3 °F /  23.5 °C 63.1 °F /  17.3 °C 30in /  1016.9hPa South 5.7mph /  9.2km/h 12.5mph /  20.1km/h 67.9% 0in /  0.0mm 305 W/m2
11:49 74.7 °F /  23.7 °C 63.1 °F /  17.3 °C 30in /  1016.9hPa SSE 5.1mph /  8.2km/h 12.5mph /  20.1km/h 67.6% 0in /  0.0mm 310 W/m2
11:54 74.7 °F /  23.7 °C 63.5 °F /  17.5 °C 30in /  1016.9hPa South 5.6mph /  9km/h 12.5mph /  20.1km/h 68.2% 0in /  0.0mm 321 W/m2
11:59 74.7 °F /  23.7 °C 63.1 °F /  17.3 °C 30in /  1016.9hPa South 4.7mph /  7.6km/h 12.5mph /  20.1km/h 67.3% 0in /  0.0mm 333 W/m2
12:04 74.7 °F /  23.7 °C 63.1 °F /  17.3 °C 30in /  1016.9hPa South 7mph /  11.2km/h 15mph /  24.1km/h 67.2% 0in /  0.0mm 344 W/m2
12:09 74.5 °F /  23.6 °C 63 °F /  17.2 °C 30in /  1016.6hPa South 4.5mph /  7.3km/h 12.5mph /  20.1km/h 67.4% 0in /  0.0mm 351 W/m2
12:14 74.5 °F /  23.6 °C 63.1 °F /  17.3 °C 30in /  1016.9hPa South 6.4mph /  10.3km/h 12.5mph /  20.1km/h 67.8% 0in /  0.0mm 365 W/m2
12:19 74.7 °F /  23.7 °C 63.7 °F /  17.6 °C 30in /  1016.9hPa SSE 6.5mph /  10.4km/h 15mph /  24.1km/h 68.9% 0in /  0.0mm 368 W/m2
12:24 74.7 °F /  23.7 °C 64.4 °F /  18 °C 30in /  1016.9hPa South 6mph /  9.7km/h 12.5mph /  20.1km/h 70.4% 0in /  0.0mm 379 W/m2
12:29 75.4 °F /  24.1 °C 64.6 °F /  18.1 °C 30in /  1016.6hPa South 5.3mph /  8.5km/h 12.5mph /  20.1km/h 68.9% 0in /  0.0mm 385 W/m2
12:34 75.4 °F /  24.1 °C 64.9 °F /  18.3 °C 30in /  1016.6hPa SSE 8.4mph /  13.6km/h 15mph /  24.1km/h 69.8% 0in /  0.0mm 395 W/m2
12:39 75.2 °F /  24 °C 64.8 °F /  18.2 °C 30in /  1016.6hPa SSE 5.5mph /  8.9km/h 12.5mph /  20.1km/h 70% 0in /  0.0mm 401 W/m2
12:44 75.4 °F /  24.1 °C 64.9 °F /  18.3 °C 30in /  1016.6hPa SSE 7.7mph /  12.4km/h 15mph /  24.1km/h 70.1% 0in /  0.0mm 406 W/m2
12:49 75.4 °F /  24.1 °C 64.8 °F /  18.2 °C 30in /  1016.3hPa South 6.6mph /  10.7km/h 15mph /  24.1km/h 69.7% 0in /  0.0mm 412 W/m2
12:54 75.4 °F /  24.1 °C 64.9 °F /  18.3 °C 30in /  1016.3hPa SSE 7.6mph /  12.3km/h 17.4mph /  28km/h 69.9% 0in /  0.0mm 419 W/m2
12:59 75.4 °F /  24.1 °C 64.8 °F /  18.2 °C 30in /  1016.3hPa South 6.5mph /  10.4km/h 17.4mph /  28km/h 69.7% 0in /  0.0mm 423 W/m2
13:04 75.4 °F /  24.1 °C 64.4 °F /  18 °C 30in /  1016.3hPa South 8mph /  12.8km/h 20.1mph /  32.3km/h 68.7% 0in /  0.0mm 426 W/m2
13:09 76.1 °F /  24.5 °C 65.1 °F /  18.4 °C 30in /  1015.9hPa SSE 8mph /  12.9km/h 15mph /  24.1km/h 68.9% 0in /  0.0mm 431 W/m2
13:14 76.1 °F /  24.5 °C 65.7 °F /  18.7 °C 30in /  1015.9hPa South 7.8mph /  12.6km/h 17.4mph /  28km/h 70% 0in /  0.0mm 429 W/m2
13:19 75.9 °F /  24.4 °C 64.8 °F /  18.2 °C 30in /  1016.3hPa South 7.5mph /  12km/h 20.1mph /  32.3km/h 68.3% 0in /  0.0mm 426 W/m2
13:24 75.9 °F /  24.4 °C 64.8 °F /  18.2 °C 30in /  1015.9hPa South 7.6mph /  12.2km/h 15mph /  24.1km/h 68.4% 0in /  0.0mm 435 W/m2
13:29 75.9 °F /  24.4 °C 64.2 °F /  17.9 °C 30in /  1016.3hPa South 8.1mph /  13km/h 15mph /  24.1km/h 67.1% 0in /  0.0mm 439 W/m2
13:34 75.9 °F /  24.4 °C 64.2 °F /  17.9 °C 30in /  1015.9hPa South 6.5mph /  10.5km/h 15mph /  24.1km/h 67.1% 0in /  0.0mm 445 W/m2
13:39 76.1 °F /  24.5 °C 64.6 °F /  18.1 °C 30in /  1015.9hPa SSE 8.9mph /  14.4km/h 17.4mph /  28km/h 67.3% 0in /  0.0mm 443 W/m2
13:44 76.1 °F /  24.5 °C 64.6 °F /  18.1 °C 30in /  1015.9hPa South 7.4mph /  11.9km/h 17.4mph /  28km/h 67.3% 0in /  0.0mm 441 W/m2
13:49 76.3 °F /  24.6 °C 64 °F /  17.8 °C 30in /  1015.9hPa South 10.1mph /  16.3km/h 22.6mph /  36.4km/h 66% 0in /  0.0mm 444 W/m2
13:54 76.3 °F /  24.6 °C 64.4 °F /  18 °C 30in /  1015.9hPa South 9.3mph /  14.9km/h 17.4mph /  28km/h 66.6% 0in /  0.0mm 445 W/m2
13:59 76.3 °F /  24.6 °C 64.2 °F /  17.9 °C 30in /  1015.6hPa SSE 5.3mph /  8.6km/h 15mph /  24.1km/h 66.2% 0in /  0.0mm 444 W/m2
14:04 76.5 °F /  24.7 °C 63.9 °F /  17.7 °C 30in /  1015.2hPa SSE 6.7mph /  10.8km/h 12.5mph /  20.1km/h 65.3% 0in /  0.0mm 447 W/m2
14:09 77.2 °F /  25.1 °C 64.6 °F /  18.1 °C 30in /  1015.6hPa South 5.3mph /  8.6km/h 17.4mph /  28km/h 65% 0in /  0.0mm 448 W/m2
14:14 77.4 °F /  25.2 °C 64.9 °F /  18.3 °C 30in /  1015.6hPa SSE 6.6mph /  10.6km/h 17.4mph /  28km/h 65.6% 0in /  0.0mm 427 W/m2
14:19 77.4 °F /  25.2 °C 64 °F /  17.8 °C 30in /  1015.2hPa South 6.8mph /  10.9km/h 15mph /  24.1km/h 63.6% 0in /  0.0mm 429 W/m2
14:24 77.2 °F /  25.1 °C 63.7 °F /  17.6 °C 30in /  1015.2hPa SSE 5.2mph /  8.3km/h 12.5mph /  20.1km/h 63.1% 0in /  0.0mm 457 W/m2
14:29 77.4 °F /  25.2 °C 64.2 °F /  17.9 °C 30in /  1014.9hPa SSE 5.2mph /  8.3km/h 12.5mph /  20.1km/h 64.2% 0in /  0.0mm 462 W/m2
14:34 77.4 °F /  25.2 °C 64 °F /  17.8 °C 30in /  1014.9hPa SSE 6.6mph /  10.7km/h 15mph /  24.1km/h 63.6% 0in /  0.0mm 437 W/m2
14:39 77.2 °F /  25.1 °C 64.4 °F /  18 °C 30in /  1014.9hPa SSE 6mph /  9.7km/h 15mph /  24.1km/h 64.6% 0in /  0.0mm 450 W/m2
14:44 77.2 °F /  25.1 °C 64.6 °F /  18.1 °C 30in /  1014.9hPa South 5.9mph /  9.5km/h 10.1mph /  16.3km/h 64.9% 0in /  0.0mm 454 W/m2
14:49 77.4 °F /  25.2 °C 64.6 °F /  18.1 °C 30in /  1014.9hPa South 7mph /  11.2km/h 12.5mph /  20.1km/h 64.8% 0in /  0.0mm 452 W/m2
14:54 77.5 °F /  25.3 °C 64.9 °F /  18.3 °C 30in /  1014.6hPa SSE 6.7mph /  10.8km/h 15mph /  24.1km/h 65.3% 0in /  0.0mm 450 W/m2
14:59 77.5 °F /  25.3 °C 64.9 °F /  18.3 °C 30in /  1014.6hPa South 6.4mph /  10.3km/h 15mph /  24.1km/h 65.3% 0in /  0.0mm 446 W/m2
15:04 77.5 °F /  25.3 °C 64.9 °F /  18.3 °C 30in /  1014.6hPa South 6.8mph /  11km/h 12.5mph /  20.1km/h 65.1% 0in /  0.0mm 428 W/m2
15:09 77.4 °F /  25.2 °C 65.3 °F /  18.5 °C 30in /  1014.6hPa SSE 7mph /  11.3km/h 15mph /  24.1km/h 66.7% 0in /  0.0mm 429 W/m2
15:14 77.2 °F /  25.1 °C 65.1 °F /  18.4 °C 30in /  1014.6hPa South 6.8mph /  11km/h 15mph /  24.1km/h 66.3% 0in /  0.0mm 401 W/m2
15:19 77.2 °F /  25.1 °C 65.1 °F /  18.4 °C 30in /  1014.6hPa South 5.2mph /  8.3km/h 15mph /  24.1km/h 66.3% 0in /  0.0mm 436 W/m2
15:24 77.4 °F /  25.2 °C 65.3 °F /  18.5 °C 30in /  1014.6hPa SSE 5.7mph /  9.2km/h 15mph /  24.1km/h 66.6% 0in /  0.0mm 429 W/m2
15:29 77.9 °F /  25.5 °C 65.8 °F /  18.8 °C 30in /  1014.6hPa SSE 4mph /  6.4km/h 12.5mph /  20.1km/h 66.4% 0in /  0.0mm 427 W/m2
15:34 78.3 °F /  25.7 °C 66.2 °F /  19 °C 30in /  1014.6hPa South 4.5mph /  7.3km/h 12.5mph /  20.1km/h 66.1% 0in /  0.0mm 405 W/m2
15:39 78.3 °F /  25.7 °C 66 °F /  18.9 °C 30in /  1014.6hPa South 4.3mph /  7km/h 12.5mph /  20.1km/h 66.2% 0in /  0.0mm 419 W/m2
15:44 78.1 °F /  25.6 °C 66 °F /  18.9 °C 30in /  1014.2hPa South 5.3mph /  8.5km/h 12.5mph /  20.1km/h 66.4% 0in /  0.0mm 357 W/m2
15:49 78.1 °F /  25.6 °C 66.2 °F /  19 °C 30in /  1014.2hPa SSE 6.1mph /  9.8km/h 12.5mph /  20.1km/h 67% 0in /  0.0mm 296 W/m2
15:54 77.9 °F /  25.5 °C 66.6 °F /  19.2 °C 30in /  1014.2hPa SSE 5.4mph /  8.7km/h 12.5mph /  20.1km/h 68.2% 0in /  0.0mm 312 W/m2
15:59 77.9 °F /  25.5 °C 67.1 °F /  19.5 °C 30in /  1014.2hPa SSE 4mph /  6.4km/h 12.5mph /  20.1km/h 69.8% 0in /  0.0mm 339 W/m2
16:04 77.7 °F /  25.4 °C 66.9 °F /  19.4 °C 30in /  1014.2hPa South 6mph /  9.7km/h 12.5mph /  20.1km/h 69.7% 0in /  0.0mm 380 W/m2
16:09 77.5 °F /  25.3 °C 66.2 °F /  19 °C 29.9in /  1013.9hPa South 5.7mph /  9.2km/h 12.5mph /  20.1km/h 68.2% 0in /  0.0mm 391 W/m2
16:14 77.2 °F /  25.1 °C 66.6 °F /  19.2 °C 29.9in /  1013.9hPa SSE 6.9mph /  11.1km/h 15mph /  24.1km/h 70% 0in /  0.0mm 384 W/m2
16:19 77.2 °F /  25.1 °C 66.9 °F /  19.4 °C 30in /  1014.2hPa SSE 5.3mph /  8.6km/h 15mph /  24.1km/h 70.7% 0in /  0.0mm 382 W/m2
16:24 77.2 °F /  25.1 °C 67.1 °F /  19.5 °C 29.9in /  1013.9hPa South 6.6mph /  10.7km/h 15mph /  24.1km/h 71% 0in /  0.0mm 381 W/m2
16:29 77.2 °F /  25.1 °C 67.3 °F /  19.6 °C 29.9in /  1013.9hPa SSE 4.9mph /  7.9km/h 10.1mph /  16.3km/h 71.1% 0in /  0.0mm 377 W/m2
16:34 77.2 °F /  25.1 °C 67.6 °F /  19.8 °C 29.9in /  1013.9hPa South 7.6mph /  12.3km/h 15mph /  24.1km/h 72.7% 0in /  0.0mm 297 W/m2
16:39 77 °F /  25 °C 67.5 °F /  19.7 °C 29.9in /  1013.9hPa South 5.1mph /  8.2km/h 12.5mph /  20.1km/h 72.9% 0in /  0.0mm 275 W/m2
16:44 76.6 °F /  24.8 °C 67.5 °F /  19.7 °C 29.9in /  1013.9hPa South 4mph /  6.5km/h 15mph /  24.1km/h 73.4% 0in /  0.0mm 324 W/m2
16:49 76.5 °F /  24.7 °C 67.1 °F /  19.5 °C 29.9in /  1013.9hPa South 5.3mph /  8.6km/h 15mph /  24.1km/h 72.8% 0in /  0.0mm 346 W/m2
16:54 76.3 °F /  24.6 °C 66.6 °F /  19.2 °C 29.9in /  1013.9hPa SSW 5.7mph /  9.2km/h 12.5mph /  20.1km/h 72.1% 0in /  0.0mm 340 W/m2
16:59 76.3 °F /  24.6 °C 66.7 °F /  19.3 °C 29.9in /  1013.9hPa SSE 5.2mph /  8.4km/h 12.5mph /  20.1km/h 72.2% 0in /  0.0mm 321 W/m2
17:04 76.3 °F /  24.6 °C 66.7 °F /  19.3 °C 29.9in /  1013.9hPa South 6.5mph /  10.4km/h 15mph /  24.1km/h 72.6% 0in /  0.0mm 313 W/m2
17:09 76.3 °F /  24.6 °C 66.7 °F /  19.3 °C 29.9in /  1013.5hPa South 3.4mph /  5.5km/h 10.1mph /  16.3km/h 72.6% 0in /  0.0mm 296 W/m2
17:14 76.1 °F /  24.5 °C 66.6 °F /  19.2 °C 29.9in /  1013.5hPa South 4.6mph /  7.4km/h 12.5mph /  20.1km/h 72.3% 0in /  0.0mm 293 W/m2
17:19 76.1 °F /  24.5 °C 66.4 °F /  19.1 °C 29.9in /  1013.5hPa South 4.9mph /  7.9km/h 15mph /  24.1km/h 72.1% 0in /  0.0mm 286 W/m2
17:24 75.9 °F /  24.4 °C 66.6 °F /  19.2 °C 29.9in /  1013.5hPa SSE 7mph /  11.2km/h 12.5mph /  20.1km/h 72.8% 0in /  0.0mm 278 W/m2
17:29 75.4 °F /  24.1 °C 66.4 °F /  19.1 °C 29.9in /  1013.5hPa SSW 5.9mph /  9.5km/h 12.5mph /  20.1km/h 73.9% 0in /  0.0mm 120 W/m2
17:34 74.3 °F /  23.5 °C 65.5 °F /  18.6 °C 29.9in /  1013.5hPa South 5.8mph /  9.3km/h 12.5mph /  20.1km/h 74% 0in /  0.0mm 104 W/m2
17:39 74.3 °F /  23.5 °C 65.7 °F /  18.7 °C 29.9in /  1013.5hPa South 6.4mph /  10.3km/h 12.5mph /  20.1km/h 74.4% 0in /  0.0mm 98 W/m2
17:44 74.1 °F /  23.4 °C 65.3 °F /  18.5 °C 29.9in /  1013.5hPa South 6mph /  9.7km/h 12.5mph /  20.1km/h 74% 0in /  0.0mm 90 W/m2
17:49 73.8 °F /  23.2 °C 64.9 °F /  18.3 °C 29.9in /  1013.5hPa South 5.8mph /  9.3km/h 15mph /  24.1km/h 73.8% 0in /  0.0mm 87 W/m2
17:54 73 °F /  22.8 °C 63.9 °F /  17.7 °C 29.9in /  1013.5hPa South 5.5mph /  8.9km/h 15mph /  24.1km/h 73% 0in /  0.0mm 84 W/m2
17:59 73 °F /  22.8 °C 63.9 °F /  17.7 °C 29.9in /  1013.5hPa South 6.2mph /  10km/h 12.5mph /  20.1km/h 73% 0in /  0.0mm 80 W/m2
18:04 73 °F /  22.8 °C 64 °F /  17.8 °C 29.9in /  1013.2hPa South 5.8mph /  9.4km/h 15mph /  24.1km/h 73.6% 0in /  0.0mm 77 W/m2
18:09 72.9 °F /  22.7 °C 64 °F /  17.8 °C 29.9in /  1013.5hPa South 5.2mph /  8.3km/h 15mph /  24.1km/h 74.1% 0in /  0.0mm 72 W/m2
18:14 72.5 °F /  22.5 °C 64 °F /  17.8 °C 29.9in /  1013.5hPa South 5mph /  8km/h 12.5mph /  20.1km/h 75% 0in /  0.0mm 66 W/m2
18:19 72.5 °F /  22.5 °C 64.4 °F /  18 °C 29.9in /  1013.2hPa South 5mph /  8km/h 12.5mph /  20.1km/h 75.6% 0in /  0.0mm 61 W/m2
18:24 72.5 °F /  22.5 °C 64.6 °F /  18.1 °C 29.9in /  1013.2hPa SSE 3.9mph /  6.2km/h 10.1mph /  16.3km/h 76% 0in /  0.0mm 58 W/m2
18:29 72.1 °F /  22.3 °C 64.4 °F /  18 °C 29.9in /  1013.2hPa SSW 5.3mph /  8.6km/h 10.1mph /  16.3km/h 76.2% 0in /  0.0mm 55 W/m2
18:34 71.6 °F /  22 °C 64 °F /  17.8 °C 29.9in /  1013.2hPa SSW 4.9mph /  7.9km/h 10.1mph /  16.3km/h 77% 0in /  0.0mm 51 W/m2
18:39 71.4 °F /  21.9 °C 63.9 °F /  17.7 °C 29.9in /  1013.2hPa SSW 4.3mph /  6.9km/h 10.1mph /  16.3km/h 77% 0in /  0.0mm 47 W/m2
18:44 71.4 °F /  21.9 °C 63.9 °F /  17.7 °C 29.9in /  1013.2hPa South 4.3mph /  7km/h 10.1mph /  16.3km/h 76.9% 0in /  0.0mm 43 W/m2
18:49 71.2 °F /  21.8 °C 63.3 °F /  17.4 °C 29.9in /  1013.2hPa South 6.2mph /  10km/h 12.5mph /  20.1km/h 76% 0in /  0.0mm 38 W/m2
18:54 70.7 °F /  21.5 °C 63.1 °F /  17.3 °C 29.9in /  1013.2hPa South 4.3mph /  7km/h 10.1mph /  16.3km/h 76.9% 0in /  0.0mm 33 W/m2
18:59 70.7 °F /  21.5 °C 63.1 °F /  17.3 °C 29.9in /  1013.2hPa South 4.2mph /  6.8km/h 10.1mph /  16.3km/h 77% 0in /  0.0mm 28 W/m2
19:04 70.7 °F /  21.5 °C 63.1 °F /  17.3 °C 29.9in /  1013.2hPa South 4.8mph /  7.8km/h 10.1mph /  16.3km/h 77% 0in /  0.0mm 20 W/m2
19:09 70.5 °F /  21.4 °C 63 °F /  17.2 °C 29.9in /  1013.2hPa South 3.1mph /  5km/h 10.1mph /  16.3km/h 77.3% 0in /  0.0mm 13 W/m2
19:14 69.8 °F /  21 °C 62.6 °F /  17 °C 29.9in /  1013.2hPa South 1.2mph /  2km/h 7.6mph /  12.2km/h 78.1% 0in /  0.0mm 9 W/m2
19:19 69.8 °F /  21 °C 62.8 °F /  17.1 °C 29.9in /  1013.2hPa South 2.7mph /  4.3km/h 7.6mph /  12.2km/h 78.4% 0in /  0.0mm 5 W/m2
19:24 69.8 °F /  21 °C 63 °F /  17.2 °C 29.9in /  1013.2hPa South 2.4mph /  3.9km/h 7.6mph /  12.2km/h 79% 0in /  0.0mm 3 W/m2
19:29 69.6 °F /  20.9 °C 62.8 °F /  17.1 °C 29.9in /  1013.5hPa South 3.4mph /  5.4km/h 7.6mph /  12.2km/h 79% 0in /  0.0mm 0 W/m2
19:34 69.1 °F /  20.6 °C 62.2 °F /  16.8 °C 29.9in /  1013.2hPa South 3.4mph /  5.5km/h 7.6mph /  12.2km/h 79% 0in /  0.0mm 0 W/m2
19:39 69.1 °F /  20.6 °C 62.2 °F /  16.8 °C 29.9in /  1013.5hPa South 5mph /  8km/h 10.1mph /  16.3km/h 79% 0in /  0.0mm 0 W/m2
19:44 69.1 °F /  20.6 °C 62.6 °F /  17 °C 29.9in /  1013.5hPa South 3.4mph /  5.4km/h 10.1mph /  16.3km/h 79.9% 0in /  0.0mm 0 W/m2
19:49 68.9 °F /  20.5 °C 62.4 °F /  16.9 °C 29.9in /  1013.5hPa South 3.4mph /  5.5km/h 10.1mph /  16.3km/h 80% 0in /  0.0mm 0 W/m2
19:54 68.2 °F /  20.1 °C 61.9 °F /  16.6 °C 29.9in /  1013.5hPa South 4.2mph /  6.8km/h 10.1mph /  16.3km/h 80.2% 0in /  0.0mm 0 W/m2
19:59 68.2 °F /  20.1 °C 62.1 °F /  16.7 °C 29.9in /  1013.5hPa South 2.4mph /  3.8km/h 12.5mph /  20.1km/h 81% 0in /  0.0mm 0 W/m2
20:04 68.2 °F /  20.1 °C 62.6 °F /  17 °C 29.9in /  1013.5hPa South 4mph /  6.4km/h 7.6mph /  12.2km/h 82.7% 0in /  0.0mm 0 W/m2
20:09 68 °F /  20 °C 63.1 °F /  17.3 °C 29.9in /  1013.5hPa South 1.8mph /  2.9km/h 7.6mph /  12.2km/h 84.3% 0in /  0.0mm 0 W/m2
20:14 67.5 °F /  19.7 °C 62.8 °F /  17.1 °C 29.9in /  1013.5hPa South 1.6mph /  2.6km/h 7.6mph /  12.2km/h 85% 0in /  0.0mm 0 W/m2
20:19 67.5 °F /  19.7 °C 62.4 °F /  16.9 °C 29.9in /  1013.9hPa South 1.1mph /  1.8km/h 7.6mph /  12.2km/h 84.2% 0in /  0.0mm 0 W/m2
20:24 67.5 °F /  19.7 °C 62.2 °F /  16.8 °C 29.9in /  1013.9hPa South 1.7mph /  2.8km/h 7.6mph /  12.2km/h 83.6% 0in /  0.0mm 0 W/m2
20:29 67.3 °F /  19.6 °C 61.9 °F /  16.6 °C 29.9in /  1013.9hPa SSE 0.2mph /  0.4km/h 4.9mph /  7.9km/h 83% 0in /  0.0mm 0 W/m2
20:34 67.1 °F /  19.5 °C 62.1 °F /  16.7 °C 30in /  1014.2hPa South 1.4mph /  2.3km/h 7.6mph /  12.2km/h 83.8% 0in /  0.0mm 0 W/m2
20:39 67.1 °F /  19.5 °C 62.1 °F /  16.7 °C 30in /  1014.2hPa SSW 2.5mph /  4km/h 7.6mph /  12.2km/h 83.8% 0in /  0.0mm 0 W/m2
20:44 67.1 °F /  19.5 °C 61.7 °F /  16.5 °C 30in /  1014.2hPa South 0.8mph /  1.3km/h 7.6mph /  12.2km/h 82.9% 0in /  0.0mm 0 W/m2
20:49 67.1 °F /  19.5 °C 61.3 °F /  16.3 °C 30in /  1014.2hPa South 0.1mph /  0.1km/h 2.5mph /  4km/h 82.2% 0in /  0.0mm 0 W/m2
20:54 66.4 °F /  19.1 °C 60.8 °F /  16 °C 30in /  1014.2hPa Calm     82% 0in /  0.0mm 0 W/m2
20:59 66.4 °F /  19.1 °C 60.4 °F /  15.8 °C 30in /  1014.2hPa South 0.6mph /  0.9km/h 4.9mph /  7.9km/h 81% 0in /  0.0mm 0 W/m2
21:04 66.6 °F /  19.2 °C 60.3 °F /  15.7 °C 30in /  1014.2hPa South 1mph /  1.6km/h 4.9mph /  7.9km/h 80% 0in /  0.0mm 0 W/m2
21:09 66.7 °F /  19.3 °C 60.3 °F /  15.7 °C 30in /  1014.2hPa South 2.4mph /  3.9km/h 7.6mph /  12.2km/h 79.7% 0in /  0.0mm 0 W/m2
21:14 67.5 °F /  19.7 °C 60.4 °F /  15.8 °C 30in /  1014.2hPa SSE 2.1mph /  3.4km/h 7.6mph /  12.2km/h 78.3% 0in /  0.0mm 0 W/m2
21:19 67.3 °F /  19.6 °C 60.1 °F /  15.6 °C 30in /  1014.2hPa South 2.7mph /  4.4km/h 7.6mph /  12.2km/h 77.6% 0in /  0.0mm 0 W/m2
21:24 67.3 °F /  19.6 °C 59.4 °F /  15.2 °C 30in /  1014.2hPa South 4.2mph /  6.8km/h 10.1mph /  16.3km/h 75.9% 0in /  0.0mm 0 W/m2
21:29 67.5 °F /  19.7 °C 58.8 °F /  14.9 °C 30in /  1014.2hPa South 4.8mph /  7.8km/h 7.6mph /  12.2km/h 74.1% 0in /  0.0mm 0 W/m2
21:34 68.2 °F /  20.1 °C 58.8 °F /  14.9 °C 30in /  1014.2hPa South 5.3mph /  8.5km/h 10.1mph /  16.3km/h 72.3% 0in /  0.0mm 0 W/m2
21:39 68.2 °F /  20.1 °C 58.8 °F /  14.9 °C 30in /  1014.6hPa South 2.2mph /  3.6km/h 10.1mph /  16.3km/h 71.9% 0in /  0.0mm 0 W/m2
21:44 68 °F /  20 °C 58.6 °F /  14.8 °C 30in /  1014.6hPa South 1.1mph /  1.8km/h 4.9mph /  7.9km/h 72% 0in /  0.0mm 0 W/m2
21:49 68 °F /  20 °C 58.6 °F /  14.8 °C 30in /  1014.6hPa South 0.2mph /  0.4km/h 4.9mph /  7.9km/h 72% 0in /  0.0mm 0 W/m2
21:54 67.8 °F /  19.9 °C 58.5 °F /  14.7 °C 30in /  1014.6hPa Calm     72% 0in /  0.0mm 0 W/m2
21:59 67.8 °F /  19.9 °C 58.8 °F /  14.9 °C 30in /  1014.6hPa Calm     73% 0in /  0.0mm 0 W/m2
22:04 67.6 °F /  19.8 °C 58.6 °F /  14.8 °C 30in /  1014.6hPa Calm     73% 0in /  0.0mm 0 W/m2
22:09 67.6 °F /  19.8 °C 58.6 °F /  14.8 °C 30in /  1014.9hPa Calm   2.5mph /  4km/h 73.2% 0in /  0.0mm 0 W/m2
22:14 67.3 °F /  19.6 °C 58.5 °F /  14.7 °C 30in /  1014.9hPa Calm   2.5mph /  4km/h 73.2% 0in /  0.0mm 0 W/m2
22:19 67.1 °F /  19.5 °C 58.3 °F /  14.6 °C 30in /  1014.9hPa Calm     73.7% 0in /  0.0mm 0 W/m2
22:24 67.1 °F /  19.5 °C 58.6 °F /  14.8 °C 30in /  1014.9hPa SSW 0.3mph /  0.5km/h 4.9mph /  7.9km/h 74.5% 0in /  0.0mm 0 W/m2
22:29 66.9 °F /  19.4 °C 59.2 °F /  15.1 °C 30in /  1015.2hPa South 0.8mph /  1.3km/h 4.9mph /  7.9km/h 75.8% 0in /  0.0mm 0 W/m2
22:34 66.2 °F /  19 °C 58.6 °F /  14.8 °C 30in /  1014.9hPa Calm   2.5mph /  4km/h 76% 0in /  0.0mm 0 W/m2
22:39 66.2 °F /  19 °C 58.5 °F /  14.7 °C 30in /  1015.2hPa SSE 0.1mph /  0.2km/h 2.5mph /  4km/h 76% 0in /  0.0mm 0 W/m2
22:44 66.2 °F /  19 °C 58.5 °F /  14.7 °C 30in /  1015.2hPa SSW 0.8mph /  1.3km/h 4.9mph /  7.9km/h 76% 0in /  0.0mm 0 W/m2
22:49 66.2 °F /  19 °C 58.8 °F /  14.9 °C 30in /  1015.2hPa SSW 2.2mph /  3.6km/h 7.6mph /  12.2km/h 76.9% 0in /  0.0mm 0 W/m2
22:54 66.6 °F /  19.2 °C 59.4 °F /  15.2 °C 30in /  1014.9hPa SSW 3.5mph /  5.6km/h 10.1mph /  16.3km/h 78% 0in /  0.0mm 0 W/m2
22:59 66.6 °F /  19.2 °C 59.5 °F /  15.3 °C 30in /  1015.2hPa South 2.3mph /  3.7km/h 7.6mph /  12.2km/h 78.2% 0in /  0.0mm 0 W/m2
23:04 66.4 °F /  19.1 °C 59.4 °F /  15.2 °C 30in /  1015.2hPa South 2.1mph /  3.4km/h 7.6mph /  12.2km/h 78.1% 0in /  0.0mm 0 W/m2
23:09 66.4 °F /  19.1 °C 59.7 °F /  15.4 °C 30in /  1014.9hPa South 1.9mph /  3km/h 4.9mph /  7.9km/h 78.9% 0in /  0.0mm 0 W/m2
23:14 66.6 °F /  19.2 °C 59.9 °F /  15.5 °C 30in /  1014.9hPa South 1.7mph /  2.7km/h 4.9mph /  7.9km/h 79% 0in /  0.0mm 0 W/m2
23:19 66.4 °F /  19.1 °C 59.7 °F /  15.4 °C 30in /  1014.6hPa South 2.2mph /  3.5km/h 7.6mph /  12.2km/h 79% 0in /  0.0mm 0 W/m2
23:24 66.4 °F /  19.1 °C 59.9 °F /  15.5 °C 30in /  1014.6hPa SSW 0.3mph /  0.5km/h 4.9mph /  7.9km/h 79.3% 0in /  0.0mm 0 W/m2
23:29 66.4 °F /  19.1 °C 60.3 °F /  15.7 °C 30in /  1014.6hPa South 0.4mph /  0.7km/h 4.9mph /  7.9km/h 80.6% 0in /  0.0mm 0 W/m2
23:34 66.4 °F /  19.1 °C 60.1 °F /  15.6 °C 30in /  1014.6hPa South 2.1mph /  3.3km/h 7.6mph /  12.2km/h 80% 0in /  0.0mm 0 W/m2
23:39 66.4 °F /  19.1 °C 60.3 °F /  15.7 °C 30in /  1014.9hPa South 0.7mph /  1.1km/h 4.9mph /  7.9km/h 80.7% 0in /  0.0mm 0 W/m2
23:44 66.4 °F /  19.1 °C 60.4 °F /  15.8 °C 30in /  1014.9hPa South 0.5mph /  0.8km/h 4.9mph /  7.9km/h 81% 0in /  0.0mm 0 W/m2
23:49 66.4 °F /  19.1 °C 60.4 °F /  15.8 °C 30in /  1014.9hPa South 1.2mph /  2km/h 4.9mph /  7.9km/h 81% 0in /  0.0mm 0 W/m2
23:54 66.2 °F /  19 °C 60.3 °F /  15.7 °C 30in /  1014.9hPa South 0.6mph /  1km/h 7.6mph /  12.2km/h 81% 0in /  0.0mm 0 W/m2
23:59 66 °F /  18.9 °C 60.3 °F /  15.7 °C 30in /  1014.9hPa South 0.3mph /  0.5km/h 4.9mph /  7.9km/h 81.6% 0in /  0.0mm 0 W/m2
Juneau County Weather
Compliments of Weather Underground - 2 mb